Time;durP1;ratioP1;P1;durP2;ratioP2;P2;SDS_P1;SDS_P2;PMS_P1;PMS_P2;Temp;Humidity;BMP_temperature;BMP_pressure;BME280_temperature;BME280_humidity;BME280_pressure;Samples;Min_cycle;Max_cycle;Signal;HPM_P1;HPM_P2
2022/04/27 00:01:47;;;;;;;2.33;1.90;;;23.00;52.50;;;;;;5014084;28;20444;-83
2022/04/27 00:04:33;;;;;;;1.70;1.60;;;23.00;52.50;;;;;;5013567;28;20185;-83
2022/04/27 00:07:00;;;;;;;2.00;1.70;;;23.00;52.50;;;;;;5012908;28;20821;-82
2022/04/27 00:09:29;;;;;;;2.20;1.80;;;23.00;52.50;;;;;;5030049;28;20487;-82
2022/04/27 00:11:59;;;;;;;2.53;1.60;;;23.00;52.50;;;;;;5013720;28;20417;-82
2022/04/27 00:14:25;;;;;;;2.00;1.80;;;23.00;52.50;;;;;;5030511;28;20431;-82
2022/04/27 00:16:51;;;;;;;2.70;1.80;;;23.00;52.50;;;;;;5014201;28;20460;-82
2022/04/27 00:19:17;;;;;;;2.97;1.60;;;23.00;52.50;;;;;;5029640;28;20420;-82
2022/04/27 00:21:43;;;;;;;2.83;1.63;;;23.00;52.50;;;;;;5014153;28;20619;-83
2022/04/27 00:24:10;;;;;;;2.10;1.63;;;23.00;52.50;;;;;;5014153;28;20504;-83
2022/04/27 00:26:37;;;;;;;2.00;1.43;;;23.00;52.50;;;;;;5013132;28;20193;-83
2022/04/27 00:29:03;;;;;;;2.73;1.67;;;23.00;52.50;;;;;;5013236;28;20448;-83
2022/04/27 00:31:31;;;;;;;1.90;1.50;;;23.00;52.50;;;;;;5014278;28;20424;-82
2022/04/27 00:34:00;;;;;;;2.57;1.70;;;22.90;52.40;;;;;;4997229;28;20484;-82
2022/04/27 00:36:31;;;;;;;2.40;1.50;;;23.00;52.50;;;;;;5013938;28;20475;-83
2022/04/27 00:38:58;;;;;;;2.97;1.90;;;23.00;52.50;;;;;;5013827;28;20411;-82
2022/04/27 00:41:26;;;;;;;1.97;1.60;;;22.90;52.40;;;;;;5013023;28;20424;-82
2022/04/27 00:43:57;;;;;;;2.33;1.70;;;22.90;52.40;;;;;;5013669;28;20496;-82
2022/04/27 00:46:26;;;;;;;2.10;1.50;;;23.00;52.50;;;;;;5014350;28;20392;-82
2022/04/27 00:48:52;;;;;;;1.90;1.43;;;22.90;52.40;;;;;;5013974;28;20436;-83
2022/04/27 00:51:24;;;;;;;2.60;1.67;;;22.90;52.40;;;;;;5013900;28;20507;-82
2022/04/27 00:53:51;;;;;;;3.03;1.40;;;22.90;52.40;;;;;;5013782;28;20512;-83
2022/04/27 00:56:18;;;;;;;2.43;1.83;;;22.90;52.40;;;;;;5012727;28;20416;-82
2022/04/27 00:58:47;;;;;;;2.00;1.60;;;22.90;52.40;;;;;;5012851;28;20424;-82
2022/04/27 01:01:14;;;;;;;2.73;1.50;;;22.90;52.40;;;;;;5013219;28;20415;-82
2022/04/27 01:03:42;;;;;;;2.20;1.70;;;22.90;52.40;;;;;;5012910;28;20480;-83
2022/04/27 01:06:09;;;;;;;2.40;1.60;;;22.90;52.40;;;;;;5013632;28;20416;-84
2022/04/27 01:08:35;;;;;;;2.73;1.60;;;22.90;52.40;;;;;;5013685;28;20543;-84
2022/04/27 01:11:02;;;;;;;2.97;1.80;;;22.90;52.40;;;;;;5012818;28;20427;-84
2022/04/27 01:13:29;;;;;;;2.27;1.80;;;22.90;52.40;;;;;;5010740;28;20404;-82
2022/04/27 01:15:56;;;;;;;2.20;1.83;;;22.90;52.40;;;;;;5012990;28;20404;-83
2022/04/27 01:18:23;;;;;;;2.37;1.70;;;22.90;52.50;;;;;;5011272;28;20408;-83
2022/04/27 01:20:50;;;;;;;1.60;1.40;;;22.90;52.40;;;;;;5010829;28;20412;-83
2022/04/27 01:23:18;;;;;;;2.30;1.37;;;22.90;52.40;;;;;;5012353;28;20412;-83
2022/04/27 01:25:56;;;;;;;1.73;1.63;;;22.90;52.40;;;;;;5010943;28;20416;-83
2022/04/27 01:28:30;;;;;;;1.60;1.50;;;22.90;52.40;;;;;;5012441;28;20407;-82
2022/04/27 01:30:58;;;;;;;1.77;1.50;;;22.90;52.40;;;;;;4997925;28;20861;-83
2022/04/27 01:33:27;;;;;;;2.77;1.67;;;22.90;52.40;;;;;;5012711;28;20447;-84
2022/04/27 01:35:58;;;;;;;1.73;1.47;;;22.90;52.40;;;;;;5012403;28;20412;-84
2022/04/27 01:38:24;;;;;;;2.23;1.93;;;22.90;52.40;;;;;;5013057;28;20412;-82
2022/04/27 01:40:54;;;;;;;2.60;1.70;;;22.90;52.40;;;;;;5013670;28;20435;-84
2022/04/27 01:43:24;;;;;;;1.40;1.23;;;22.90;52.40;;;;;;5012780;28;20424;-83
2022/04/27 01:45:53;;;;;;;2.10;1.47;;;22.90;52.40;;;;;;5012599;28;20424;-83
2022/04/27 01:48:21;;;;;;;2.60;1.30;;;22.90;52.40;;;;;;5012466;28;20496;-83
2022/04/27 01:50:48;;;;;;;1.77;1.40;;;22.90;52.40;;;;;;5012217;28;20468;-82
2022/04/27 01:56:01;;;;;;;2.80;1.60;;;22.90;52.40;;;;;;5017140;28;20463;-83
2022/04/27 01:58:31;;;;;;;3.83;1.33;;;22.90;52.40;;;;;;5011110;28;20417;-82
2022/04/27 02:00:57;;;;;;;2.43;1.60;;;22.90;52.40;;;;;;5013465;28;20428;-82
2022/04/27 02:03:25;;;;;;;3.23;1.40;;;22.90;52.40;;;;;;5017751;28;20479;-83
2022/04/27 02:05:56;;;;;;;2.07;1.53;;;22.90;52.40;;;;;;5012770;28;20510;-83
2022/04/27 02:08:24;;;;;;;2.20;1.30;;;22.90;52.40;;;;;;5000756;28;20424;-82
2022/04/27 02:10:52;;;;;;;1.97;1.47;;;22.90;52.40;;;;;;5017020;28;20498;-83
2022/04/27 02:13:19;;;;;;;1.90;1.37;;;22.90;52.50;;;;;;4999994;28;20412;-83
2022/04/27 02:15:46;;;;;;;1.80;1.40;;;22.90;52.40;;;;;;5015974;28;20416;-83
2022/04/27 02:18:18;;;;;;;2.03;1.80;;;22.90;52.40;;;;;;5016435;28;20484;-83
2022/04/27 02:20:45;;;;;;;2.30;1.50;;;22.90;52.40;;;;;;5017360;28;20428;-84
2022/04/27 02:23:12;;;;;;;2.40;1.50;;;22.90;52.50;;;;;;5016274;28;20467;-83
2022/04/27 02:25:41;;;;;;;1.90;1.40;;;22.90;52.50;;;;;;5015891;28;20424;-83
2022/04/27 02:28:08;;;;;;;2.67;1.67;;;22.90;52.50;;;;;;5010746;28;20485;-83
2022/04/27 02:30:36;;;;;;;1.67;1.37;;;22.90;52.50;;;;;;5014553;28;20701;-83
2022/04/27 02:33:02;;;;;;;1.40;1.20;;;22.80;52.40;;;;;;5016192;28;20444;-83
2022/04/27 02:35:30;;;;;;;2.00;1.37;;;22.80;52.40;;;;;;5015175;28;20440;-84
2022/04/27 02:37:56;;;;;;;1.30;1.20;;;22.80;52.40;;;;;;5030987;28;20412;-83
2022/04/27 02:40:24;;;;;;;2.00;1.57;;;22.80;52.40;;;;;;5032014;28;20416;-83
2022/04/27 02:42:54;;;;;;;2.10;1.40;;;22.80;52.40;;;;;;5014957;28;20463;-82
2022/04/27 02:45:20;;;;;;;1.40;1.30;;;22.80;52.40;;;;;;4999699;28;20471;-83
2022/04/27 02:47:47;;;;;;;1.50;1.37;;;22.80;52.40;;;;;;5015469;28;20432;-82
2022/04/27 02:52:58;;;;;;;2.47;1.40;;;22.80;52.40;;;;;;5015124;28;20447;-83
2022/04/27 02:55:24;;;;;;;2.17;1.83;;;22.80;52.40;;;;;;4996610;28;20525;-83
2022/04/27 02:57:50;;;;;;;1.40;1.20;;;22.80;52.50;;;;;;5011305;28;20425;-83
2022/04/27 03:00:16;;;;;;;1.77;1.30;;;22.80;52.50;;;;;;4995235;28;20425;-83
2022/04/27 03:02:42;;;;;;;1.37;1.10;;;22.80;52.50;;;;;;4994848;28;20220;-83
2022/04/27 03:05:10;;;;;;;1.37;1.13;;;22.80;52.50;;;;;;4995029;28;20254;-83
2022/04/27 03:07:36;;;;;;;2.80;1.30;;;22.80;52.50;;;;;;4994413;28;20417;-83
2022/04/27 03:10:03;;;;;;;2.23;1.70;;;22.80;52.50;;;;;;4995352;28;20471;-83
2022/04/27 03:12:30;;;;;;;2.23;1.77;;;22.80;52.50;;;;;;4995589;28;20509;-83
2022/04/27 03:14:57;;;;;;;1.97;1.40;;;22.80;52.40;;;;;;4995660;28;20468;-83
2022/04/27 03:17:23;;;;;;;1.90;1.50;;;22.80;52.40;;;;;;4995534;28;20417;-83
2022/04/27 03:19:49;;;;;;;1.70;1.30;;;22.80;52.50;;;;;;4995122;28;20424;-83
2022/04/27 03:22:15;;;;;;;1.73;1.23;;;22.80;52.50;;;;;;4995201;28;20405;-83
2022/04/27 03:24:41;;;;;;;2.00;1.40;;;22.80;52.50;;;;;;5009087;28;20193;-83
2022/04/27 03:27:07;;;;;;;2.03;1.63;;;22.80;52.50;;;;;;5030339;28;20216;-83
2022/04/27 03:29:33;;;;;;;1.50;1.30;;;22.80;52.40;;;;;;5013757;28;20463;-83
2022/04/27 03:31:59;;;;;;;1.60;1.20;;;22.80;52.50;;;;;;5015259;28;20409;-83
2022/04/27 03:34:25;;;;;;;1.63;1.20;;;22.80;52.40;;;;;;5015510;28;20184;-83
2022/04/27 03:36:51;;;;;;;1.77;1.27;;;22.80;52.40;;;;;;4997698;28;20204;-84
2022/04/27 03:39:17;;;;;;;2.03;1.53;;;22.80;52.40;;;;;;5014154;28;20404;-83
2022/04/27 03:41:44;;;;;;;1.50;1.40;;;22.80;52.40;;;;;;5014061;28;20965;-83
2022/04/27 03:44:10;;;;;;;2.77;1.17;;;22.80;52.40;;;;;;5029560;28;20181;-83
2022/04/27 03:46:36;;;;;;;1.90;1.30;;;22.80;52.40;;;;;;5008848;28;20424;-83
2022/04/27 03:49:02;;;;;;;2.00;1.23;;;22.80;52.40;;;;;;5009440;28;20491;-82
2022/04/27 03:51:28;;;;;;;1.83;1.43;;;22.70;52.40;;;;;;5008285;28;20181;-82
2022/04/27 03:53:54;;;;;;;2.20;2.00;;;22.80;52.50;;;;;;5011843;28;20443;-83
2022/04/27 03:56:20;;;;;;;2.13;1.40;;;22.70;52.40;;;;;;4997870;28;20189;-83
2022/04/27 03:58:46;;;;;;;1.60;1.50;;;22.70;52.40;;;;;;5011441;28;20191;-84
2022/04/27 04:01:14;;;;;;;2.33;1.60;;;22.70;52.40;;;;;;5012751;28;20421;-84
2022/04/27 04:03:40;;;;;;;1.90;1.53;;;22.70;52.40;;;;;;5013501;28;20408;-83
2022/04/27 04:06:06;;;;;;;1.50;1.40;;;22.70;52.40;;;;;;5011856;28;20419;-85
2022/04/27 04:08:34;;;;;;;1.27;1.13;;;22.70;52.40;;;;;;5028515;28;20248;-84
2022/04/27 04:11:02;;;;;;;2.57;1.70;;;22.70;52.40;;;;;;5013293;28;20456;-83
2022/04/27 04:13:34;;;;;;;1.93;1.13;;;22.70;52.40;;;;;;5013421;28;20413;-83
2022/04/27 04:16:07;;;;;;;1.70;1.23;;;22.70;52.40;;;;;;5013069;28;20427;-83
2022/04/27 04:18:33;;;;;;;1.97;1.33;;;22.70;52.40;;;;;;5012482;28;20412;-84
2022/04/27 04:20:59;;;;;;;1.67;1.33;;;22.70;52.40;;;;;;4996401;28;20515;-84
2022/04/27 04:23:25;;;;;;;2.17;1.60;;;22.70;52.40;;;;;;5029342;28;20435;-84
2022/04/27 04:28:37;;;;;;;1.83;1.30;;;22.70;52.40;;;;;;5012633;28;20435;-83
2022/04/27 04:31:06;;;;;;;1.60;1.20;;;22.70;52.40;;;;;;5012309;28;20479;-84
2022/04/27 04:33:32;;;;;;;1.87;1.23;;;22.70;52.50;;;;;;5013161;28;20487;-83
2022/04/27 04:35:59;;;;;;;1.60;1.10;;;22.70;52.50;;;;;;5012925;28;20416;-84
2022/04/27 04:38:26;;;;;;;3.03;1.50;;;22.70;52.50;;;;;;5012094;28;20426;-84
2022/04/27 04:40:52;;;;;;;2.77;1.40;;;22.70;52.50;;;;;;4996378;28;20428;-84
2022/04/27 04:43:22;;;;;;;1.33;1.10;;;22.70;52.50;;;;;;5012141;28;20443;-84
2022/04/27 04:45:48;;;;;;;1.87;1.40;;;22.70;52.50;;;;;;5012541;28;20439;-84
2022/04/27 04:48:16;;;;;;;1.50;1.20;;;22.70;52.50;;;;;;5011717;28;20424;-84
2022/04/27 04:50:41;;;;;;;1.77;1.50;;;22.70;52.50;;;;;;5011638;28;20460;-84
2022/04/27 04:53:08;;;;;;;2.13;1.27;;;22.70;52.50;;;;;;5012955;28;20437;-84
2022/04/27 04:55:35;;;;;;;2.23;1.70;;;22.70;52.50;;;;;;5012345;28;20181;-84
2022/04/27 04:58:04;;;;;;;2.23;1.40;;;22.70;52.50;;;;;;5011680;28;20444;-84
2022/04/27 05:00:32;;;;;;;1.77;1.43;;;22.70;52.50;;;;;;5012618;28;20467;-84
2022/04/27 05:02:59;;;;;;;2.00;1.40;;;22.70;52.50;;;;;;5011311;28;20798;-84
2022/04/27 05:05:27;;;;;;;3.00;1.33;;;22.70;52.50;;;;;;5011388;28;20455;-84
2022/04/27 05:07:53;;;;;;;4.70;1.70;;;22.70;52.50;;;;;;5012830;28;20435;-84
2022/04/27 05:10:19;;;;;;;1.40;1.20;;;22.70;52.50;;;;;;5011318;28;20540;-84
2022/04/27 05:12:45;;;;;;;1.50;1.27;;;22.70;52.50;;;;;;4995091;28;20181;-84
2022/04/27 05:15:12;;;;;;;1.60;1.23;;;22.70;52.50;;;;;;5009262;28;20451;-83
2022/04/27 05:17:39;;;;;;;1.57;1.23;;;22.70;52.50;;;;;;5011030;28;20424;-83
2022/04/27 05:20:08;;;;;;;1.60;1.40;;;22.70;52.50;;;;;;5012366;28;20447;-84
2022/04/27 05:22:37;;;;;;;2.63;2.43;;;22.70;52.50;;;;;;4993816;28;20428;-83
2022/04/27 05:25:05;;;;;;;1.57;1.43;;;22.70;52.50;;;;;;5026305;28;20445;-85
2022/04/27 05:27:31;;;;;;;2.77;2.13;;;22.70;52.50;;;;;;5014479;28;20443;-84
2022/04/27 05:32:44;;;;;;;2.10;1.90;;;22.70;52.50;;;;;;5016254;28;20419;-84
2022/04/27 05:35:10;;;;;;;2.27;2.07;;;22.70;52.50;;;;;;5013350;28;20412;-84
2022/04/27 05:37:39;;;;;;;2.23;1.77;;;22.70;52.50;;;;;;5015206;28;20424;-85
2022/04/27 05:40:06;;;;;;;1.97;1.47;;;22.70;52.40;;;;;;5013851;28;20478;-84
2022/04/27 05:42:35;;;;;;;1.67;1.30;;;22.70;52.40;;;;;;5014537;28;20428;-84
2022/04/27 05:45:01;;;;;;;2.00;1.50;;;22.70;52.40;;;;;;5016133;28;20424;-83
2022/04/27 05:47:27;;;;;;;2.70;1.60;;;22.70;52.40;;;;;;5015322;28;20459;-84
2022/04/27 05:49:52;;;;;;;2.50;1.60;;;22.70;52.40;;;;;;5015932;28;20463;-84
2022/04/27 05:52:20;;;;;;;2.53;1.60;;;22.70;52.40;;;;;;4998795;28;20435;-84
2022/04/27 05:54:59;;;;;;;1.77;1.43;;;22.70;52.40;;;;;;5015768;28;20416;-83
2022/04/27 05:57:25;;;;;;;2.03;1.63;;;22.70;52.40;;;;;;5015210;28;20439;-84
2022/04/27 05:59:54;;;;;;;2.40;1.70;;;22.70;52.40;;;;;;4998749;28;20423;-84
2022/04/27 06:02:28;;;;;;;2.07;1.87;;;22.70;52.50;;;;;;5015087;28;20408;-83
2022/04/27 06:04:56;;;;;;;2.00;1.80;;;22.70;52.50;;;;;;5014706;28;20435;-85
2022/04/27 06:07:24;;;;;;;1.83;1.70;;;22.70;52.50;;;;;;5014696;28;20470;-84
2022/04/27 06:09:51;;;;;;;2.20;1.67;;;22.70;52.50;;;;;;5015547;28;20448;-84
2022/04/27 06:12:18;;;;;;;1.93;1.50;;;22.70;52.50;;;;;;5015111;28;20917;-84
2022/04/27 06:14:44;;;;;;;2.20;1.57;;;22.70;52.50;;;;;;5015148;28;20435;-84
2022/04/27 06:17:10;;;;;;;2.30;1.50;;;22.70;52.50;;;;;;4998173;28;20420;-84
2022/04/27 06:19:36;;;;;;;2.00;1.63;;;22.70;52.50;;;;;;5013533;28;20428;-83
2022/04/27 06:22:03;;;;;;;1.73;1.57;;;22.70;52.50;;;;;;5014154;28;20424;-84
2022/04/27 06:24:31;;;;;;;2.40;1.77;;;22.70;52.50;;;;;;5013911;28;20789;-83
2022/04/27 06:26:58;;;;;;;2.27;1.97;;;22.80;52.50;;;;;;5013334;28;20444;-84
2022/04/27 06:29:27;;;;;;;2.37;1.60;;;22.70;52.50;;;;;;5015372;28;20463;-85
2022/04/27 06:31:54;;;;;;;2.03;1.60;;;22.70;52.50;;;;;;5014968;28;20468;-84
2022/04/27 06:34:20;;;;;;;2.17;1.40;;;22.70;53.00;;;;;;5014213;28;20412;-85
2022/04/27 06:36:47;;;;;;;4.30;1.60;;;22.70;52.40;;;;;;5015090;28;20404;-85
2022/04/27 06:39:15;;;;;;;1.73;1.40;;;22.70;52.50;;;;;;5015366;28;20420;-84
2022/04/27 06:41:42;;;;;;;1.60;1.50;;;22.70;52.50;;;;;;5015104;28;20404;-85
2022/04/27 06:44:10;;;;;;;2.17;1.60;;;22.70;52.50;;;;;;5015320;28;20484;-84
2022/04/27 06:46:39;;;;;;;2.00;1.80;;;22.70;52.40;;;;;;5014124;28;20443;-85
2022/04/27 06:49:06;;;;;;;1.80;1.50;;;22.70;52.50;;;;;;5014821;28;20475;-84
2022/04/27 06:51:31;;;;;;;2.00;1.80;;;22.70;52.40;;;;;;4997403;28;20427;-85
2022/04/27 06:54:00;;;;;;;2.57;2.37;;;22.70;52.40;;;;;;5014219;28;20416;-84
2022/04/27 06:56:28;;;;;;;2.33;1.50;;;22.70;52.40;;;;;;5014192;28;20196;-85
2022/04/27 06:58:54;;;;;;;2.17;1.50;;;22.70;53.00;;;;;;5007161;28;20457;-85
2022/04/27 07:01:21;;;;;;;2.00;1.47;;;22.70;52.40;;;;;;4994243;28;20434;-85
2022/04/27 07:03:53;;;;;;;1.87;1.67;;;22.70;52.40;;;;;;4993775;28;20178;-85
2022/04/27 07:06:19;;;;;;;1.63;1.40;;;22.80;52.50;;;;;;4994608;28;20423;-85
2022/04/27 07:08:46;;;;;;;2.00;1.63;;;22.70;52.40;;;;;;4995526;28;20413;-85
2022/04/27 07:11:13;;;;;;;2.43;1.70;;;22.70;52.40;;;;;;4994000;28;20461;-85
2022/04/27 07:13:45;;;;;;;2.07;1.40;;;22.70;52.40;;;;;;4993690;28;20445;-84
2022/04/27 07:16:14;;;;;;;2.13;1.37;;;22.70;52.40;;;;;;4995238;28;20425;-84
2022/04/27 07:18:39;;;;;;;2.27;1.90;;;22.70;52.40;;;;;;4995513;28;20425;-85
2022/04/27 07:21:10;;;;;;;1.57;1.37;;;22.70;52.40;;;;;;4993833;28;20432;-84
2022/04/27 07:23:36;;;;;;;2.10;1.73;;;22.70;52.50;;;;;;4994139;28;20396;-84
2022/04/27 07:26:08;;;;;;;2.13;1.57;;;22.70;52.40;;;;;;4994678;28;20912;-84
2022/04/27 07:28:38;;;;;;;1.60;1.40;;;22.80;52.50;;;;;;4993457;28;20194;-84
2022/04/27 07:31:06;;;;;;;3.17;1.47;;;22.80;52.50;;;;;;4993610;28;20521;-84
2022/04/27 07:33:32;;;;;;;1.60;1.37;;;22.70;52.40;;;;;;4993301;28;20489;-84
2022/04/27 07:36:02;;;;;;;1.60;1.50;;;22.70;52.40;;;;;;4995713;28;20406;-84
2022/04/27 07:38:28;;;;;;;2.60;1.47;;;22.80;52.50;;;;;;4977515;28;20426;-84
2022/04/27 07:40:54;;;;;;;1.50;1.40;;;22.70;52.40;;;;;;4993435;28;20417;-85
2022/04/27 07:43:21;;;;;;;1.60;1.50;;;22.70;52.40;;;;;;4994239;28;20427;-85
2022/04/27 07:45:47;;;;;;;1.70;1.40;;;22.80;52.40;;;;;;4994188;28;20481;-85
2022/04/27 07:48:13;;;;;;;1.87;1.67;;;22.70;52.40;;;;;;4992520;28;20529;-85
2022/04/27 07:50:41;;;;;;;1.93;1.73;;;22.70;52.40;;;;;;4976977;28;20473;-85
2022/04/27 07:53:07;;;;;;;1.80;1.63;;;22.70;52.90;;;;;;4993389;28;20445;-84
2022/04/27 07:55:34;;;;;;;1.70;1.37;;;22.70;52.30;;;;;;4994501;28;20425;-85
2022/04/27 07:58:00;;;;;;;2.33;1.80;;;22.80;52.40;;;;;;4993284;28;20178;-84
2022/04/27 08:00:29;;;;;;;3.70;1.80;;;22.70;52.30;;;;;;4994206;28;20907;-84
2022/04/27 08:02:56;;;;;;;2.27;1.40;;;22.80;52.40;;;;;;5007803;28;20432;-84
2022/04/27 08:05:23;;;;;;;1.40;1.30;;;22.70;52.30;;;;;;5014413;28;20423;-84
2022/04/27 08:07:50;;;;;;;1.90;1.30;;;22.80;52.40;;;;;;5029246;28;20424;-85
2022/04/27 08:10:21;;;;;;;2.50;1.80;;;22.70;52.30;;;;;;5014504;28;20456;-84
2022/04/27 08:12:49;;;;;;;1.90;1.70;;;22.80;52.40;;;;;;5013828;28;20412;-84
2022/04/27 08:15:17;;;;;;;1.87;1.60;;;22.70;52.30;;;;;;5013577;28;20408;-85
2022/04/27 08:18:04;;;;;;;2.00;1.50;;;22.80;52.40;;;;;;5012760;28;20524;-84
2022/04/27 08:23:23;;;;;;;2.20;1.60;;;22.80;52.40;;;;;;5014146;28;20398;-84
2022/04/27 08:25:52;;;;;;;2.50;1.60;;;22.70;52.40;;;;;;5013068;28;20400;-83
2022/04/27 08:28:19;;;;;;;2.37;1.90;;;22.70;52.40;;;;;;5012838;28;20439;-84
2022/04/27 08:30:49;;;;;;;1.60;1.50;;;22.80;52.40;;;;;;5011562;28;20452;-83
2022/04/27 08:33:16;;;;;;;1.60;1.27;;;22.80;52.40;;;;;;5009899;28;20922;-86
2022/04/27 08:35:44;;;;;;;2.00;1.50;;;22.80;52.40;;;;;;5027950;28;20431;-84
2022/04/27 08:38:11;;;;;;;2.13;1.60;;;22.80;52.40;;;;;;4999482;28;20424;-84
2022/04/27 08:40:42;;;;;;;1.50;1.40;;;22.80;52.40;;;;;;4993426;28;20417;-84
2022/04/27 08:43:12;;;;;;;2.00;1.57;;;22.80;52.40;;;;;;4993953;28;20444;-83
2022/04/27 08:45:43;;;;;;;2.20;1.90;;;22.80;52.40;;;;;;5009056;28;20936;-84
2022/04/27 08:48:10;;;;;;;1.90;1.57;;;22.80;52.40;;;;;;5005877;28;20455;-84
2022/04/27 08:50:38;;;;;;;2.17;1.40;;;22.80;52.90;;;;;;5012130;28;20428;-84
2022/04/27 08:53:07;;;;;;;2.50;1.77;;;22.80;52.40;;;;;;4995292;28;20428;-83
2022/04/27 08:55:37;;;;;;;2.40;2.20;;;22.80;52.40;;;;;;5009403;28;20419;-83
2022/04/27 08:58:11;;;;;;;1.60;1.33;;;22.80;52.40;;;;;;5009357;28;20443;-83
2022/04/27 09:00:40;;;;;;;1.73;1.37;;;22.80;52.40;;;;;;5012371;28;20920;-83
2022/04/27 09:03:30;;;;;;;1.83;1.63;;;22.80;52.40;;;;;;5015905;28;20460;-83
2022/04/27 09:06:01;;;;;;;2.27;1.43;;;22.80;52.40;;;;;;5007300;28;20500;-84
2022/04/27 09:08:44;;;;;;;1.97;1.77;;;22.80;52.40;;;;;;5009393;28;20411;-84
2022/04/27 09:11:26;;;;;;;3.50;1.43;;;22.80;52.40;;;;;;5012315;28;20464;-85
2022/04/27 09:13:56;;;;;;;1.63;1.53;;;22.80;52.40;;;;;;5025677;28;20460;-84
2022/04/27 09:16:24;;;;;;;2.30;1.40;;;22.80;52.40;;;;;;5015857;28;20408;-85
2022/04/27 09:22:04;;;;;;;1.80;1.50;;;22.80;52.40;;;;;;5003138;28;20420;-85
2022/04/27 09:24:52;;;;;;;1.67;1.57;;;22.80;52.40;;;;;;5010826;28;20502;-85
2022/04/27 09:27:23;;;;;;;2.07;1.80;;;22.80;52.40;;;;;;5009518;28;20444;-84
2022/04/27 09:30:01;;;;;;;2.10;1.50;;;22.70;52.40;;;;;;5016255;28;20451;-85
2022/04/27 09:32:27;;;;;;;2.00;1.70;;;22.80;52.40;;;;;;5008360;28;20411;-86
2022/04/27 09:34:57;;;;;;;1.73;1.57;;;22.80;52.40;;;;;;5010226;28;20634;-86
2022/04/27 09:37:24;;;;;;;2.13;1.60;;;22.80;52.40;;;;;;5013468;28;20428;-86
2022/04/27 09:40:14;;;;;;;1.70;1.40;;;22.80;52.40;;;;;;5029545;28;20429;-86
2022/04/27 09:42:46;;;;;;;2.07;1.33;;;22.80;52.40;;;;;;5019889;28;20488;-86
2022/04/27 09:45:18;;;;;;;2.20;1.27;;;22.80;52.50;;;;;;4995453;28;20421;-86
2022/04/27 09:47:49;;;;;;;3.80;1.70;;;22.80;52.50;;;;;;4995922;28;20496;-86
2022/04/27 09:50:17;;;;;;;1.33;1.10;;;22.80;52.50;;;;;;5019256;28;20453;-86
2022/04/27 09:52:44;;;;;;;1.67;1.43;;;22.80;52.50;;;;;;5010385;28;20650;-86
2022/04/27 09:55:10;;;;;;;1.40;1.30;;;22.80;52.50;;;;;;5002879;28;20448;-86
2022/04/27 09:57:40;;;;;;;1.43;1.33;;;22.80;52.50;;;;;;4994239;28;20420;-86
2022/04/27 10:00:07;;;;;;;1.40;1.30;;;22.80;52.50;;;;;;5013166;28;20420;-86
2022/04/27 10:02:35;;;;;;;1.33;1.23;;;22.80;52.40;;;;;;5012520;28;20431;-86
2022/04/27 10:05:01;;;;;;;1.87;1.40;;;22.80;52.40;;;;;;5011914;28;20511;-86
2022/04/27 10:07:32;;;;;;;2.20;1.80;;;22.80;52.40;;;;;;5013027;28;20420;-85
2022/04/27 10:09:59;;;;;;;1.73;1.63;;;22.80;52.40;;;;;;5013301;28;20495;-85
2022/04/27 10:12:25;;;;;;;1.57;1.30;;;22.80;52.40;;;;;;5012398;28;20428;-86
2022/04/27 10:14:51;;;;;;;1.70;1.40;;;22.80;52.40;;;;;;5012117;28;20429;-86
2022/04/27 10:17:17;;;;;;;1.30;1.20;;;22.80;52.40;;;;;;5001446;28;20445;-86
2022/04/27 10:19:50;;;;;;;1.70;1.60;;;22.80;52.40;;;;;;5010155;28;20788;-86
2022/04/27 10:22:32;;;;;;;2.30;1.50;;;22.80;52.40;;;;;;4993526;28;20432;-86
2022/04/27 10:25:09;;;;;;;1.87;1.67;;;22.80;52.40;;;;;;5000852;28;20413;-86
2022/04/27 10:27:38;;;;;;;1.83;1.50;;;22.80;52.40;;;;;;4998946;28;20475;-86
2022/04/27 10:30:07;;;;;;;1.90;1.27;;;22.80;52.40;;;;;;4998344;28;20482;-86
2022/04/27 10:32:46;;;;;;;1.67;1.57;;;22.80;52.40;;;;;;5020597;28;20612;-86
2022/04/27 10:35:12;;;;;;;1.50;1.30;;;22.80;52.40;;;;;;5019052;28;20418;-86
2022/04/27 10:37:43;;;;;;;1.50;1.17;;;22.80;52.40;;;;;;5013124;28;20416;-86
2022/04/27 10:40:32;;;;;;;1.70;1.50;;;22.80;52.40;;;;;;5003690;28;20172;-87
2022/04/27 10:43:07;;;;;;;2.00;1.50;;;22.80;52.40;;;;;;4996316;28;20958;-86
2022/04/27 10:45:41;;;;;;;1.43;1.20;;;22.80;52.50;;;;;;4995705;28;20456;-86
2022/04/27 10:48:13;;;;;;;1.80;1.30;;;22.80;52.50;;;;;;4996774;28;20427;-86
2022/04/27 10:50:39;;;;;;;1.90;1.43;;;22.80;52.50;;;;;;4995818;28;20492;-86
2022/04/27 10:53:19;;;;;;;2.90;1.30;;;22.80;52.50;;;;;;4997368;28;20473;-86
2022/04/27 10:55:54;;;;;;;1.70;1.50;;;22.80;52.50;;;;;;5012586;28;20431;-86
2022/04/27 10:58:33;;;;;;;1.90;1.53;;;22.80;52.50;;;;;;5008451;28;20778;-86
2022/04/27 11:00:58;;;;;;;1.30;1.20;;;22.80;52.50;;;;;;5020198;28;20869;-86
2022/04/27 11:03:40;;;;;;;1.97;1.43;;;22.80;52.50;;;;;;5002156;28;20424;-85
2022/04/27 11:06:13;;;;;;;1.43;1.30;;;22.80;52.50;;;;;;5014547;28;20186;-86
2022/04/27 11:09:04;;;;;;;1.70;1.47;;;22.80;52.50;;;;;;5007178;28;20428;-87
2022/04/27 11:11:31;;;;;;;1.23;1.10;;;22.80;52.50;;;;;;4996653;28;20432;-85
2022/04/27 11:14:03;;;;;;;1.30;1.00;;;22.80;52.50;;;;;;4997194;28;20425;-84
2022/04/27 11:16:30;;;;;;;1.80;1.30;;;22.80;52.50;;;;;;5007035;28;20443;-86
2022/04/27 11:18:59;;;;;;;1.20;1.10;;;22.80;52.50;;;;;;4999676;28;20425;-86
2022/04/27 11:21:30;;;;;;;1.77;1.50;;;22.80;52.50;;;;;;4999314;28;20420;-86
2022/04/27 11:24:00;;;;;;;2.17;1.50;;;22.80;52.50;;;;;;4997979;28;20421;-86
2022/04/27 11:26:26;;;;;;;2.40;1.50;;;22.80;52.50;;;;;;5000659;28;20405;-86
2022/04/27 11:28:53;;;;;;;1.40;1.10;;;22.80;52.50;;;;;;5009292;28;20455;-86
2022/04/27 11:31:20;;;;;;;1.20;1.07;;;22.80;52.50;;;;;;5011015;28;20425;-85
2022/04/27 11:33:49;;;;;;;1.30;1.20;;;22.80;52.50;;;;;;5011558;28;20488;-86
2022/04/27 11:36:46;;;;;;;1.10;1.00;;;22.80;52.50;;;;;;5002318;28;20421;-86
2022/04/27 11:39:21;;;;;;;1.50;1.20;;;22.80;52.40;;;;;;4953315;29;20431;-86
2022/04/27 11:41:47;;;;;;;1.50;1.10;;;22.80;52.50;;;;;;4970555;28;20502;-85
2022/04/27 11:44:21;;;;;;;1.27;1.13;;;22.80;52.50;;;;;;4965580;29;20917;-85
2022/04/27 11:46:49;;;;;;;1.60;1.37;;;22.80;52.50;;;;;;4970192;29;20310;-85
2022/04/27 11:49:15;;;;;;;1.50;1.30;;;22.80;52.40;;;;;;4969814;29;20806;-85
2022/04/27 11:51:50;;;;;;;1.80;1.27;;;22.80;52.50;;;;;;4961171;29;20440;-84
2022/04/27 11:54:27;;;;;;;1.40;1.30;;;22.80;52.50;;;;;;4955499;29;20177;-84
2022/04/27 11:57:03;;;;;;;2.43;1.23;;;22.80;52.50;;;;;;4952263;29;20426;-83
2022/04/27 11:59:47;;;;;;;1.10;1.00;;;22.80;52.50;;;;;;4954415;29;20419;-84
2022/04/27 12:02:14;;;;;;;1.43;1.30;;;22.80;52.50;;;;;;4972514;29;20489;-84
2022/04/27 12:04:43;;;;;;;1.73;1.10;;;22.80;52.50;;;;;;4968370;29;20425;-83
2022/04/27 12:07:13;;;;;;;1.53;1.13;;;22.80;52.50;;;;;;4952075;29;20944;-84
2022/04/27 12:09:40;;;;;;;1.30;1.13;;;22.80;52.50;;;;;;4963631;29;20458;-84
2022/04/27 12:12:12;;;;;;;1.40;1.07;;;22.80;52.50;;;;;;4954747;29;20418;-84
2022/04/27 12:14:39;;;;;;;1.40;1.23;;;22.80;52.50;;;;;;4971223;29;20458;-83
2022/04/27 12:17:07;;;;;;;1.30;1.10;;;22.80;52.50;;;;;;5001078;28;20416;-85
2022/04/27 12:19:36;;;;;;;1.67;1.37;;;22.80;52.50;;;;;;5026105;28;20960;-84
2022/04/27 12:22:15;;;;;;;1.33;1.23;;;22.90;52.60;;;;;;5026871;28;20420;-85
2022/04/27 12:24:45;;;;;;;2.17;1.30;;;22.90;52.60;;;;;;5003499;28;20503;-85
2022/04/27 12:27:23;;;;;;;1.30;1.10;;;22.90;52.60;;;;;;5026622;28;20427;-85
2022/04/27 12:29:49;;;;;;;1.27;1.17;;;22.90;52.60;;;;;;5007327;28;20466;-85
2022/04/27 12:32:19;;;;;;;1.60;1.30;;;22.80;52.50;;;;;;5002734;28;20448;-84
2022/04/27 12:37:31;;;;;;;1.50;1.20;;;22.90;52.60;;;;;;5010708;28;20443;-85
2022/04/27 12:40:17;;;;;;;1.50;1.17;;;22.90;52.60;;;;;;5009495;28;20416;-85
2022/04/27 12:43:23;;;;;;;1.57;1.27;;;22.90;52.60;;;;;;5010264;28;20455;-85
2022/04/27 12:46:12;;;;;;;2.00;1.30;;;22.90;52.60;;;;;;4959245;29;20441;-85
2022/04/27 12:48:38;;;;;;;1.20;1.03;;;22.90;52.60;;;;;;5008392;28;20432;-84
2022/04/27 12:51:08;;;;;;;1.90;1.13;;;22.80;52.50;;;;;;5001659;28;20463;-84
2022/04/27 12:53:35;;;;;;;1.53;1.10;;;22.80;52.60;;;;;;4977511;28;20432;-84
2022/04/27 12:56:22;;;;;;;1.50;1.20;;;22.90;52.60;;;;;;4991735;28;20429;-84
2022/04/27 12:59:10;;;;;;;1.20;1.00;;;22.90;52.60;;;;;;4993741;28;20412;-84
2022/04/27 13:01:36;;;;;;;1.23;1.10;;;22.90;52.60;;;;;;4993691;28;20412;-84
2022/04/27 13:04:06;;;;;;;1.73;1.20;;;22.80;52.50;;;;;;4992808;28;20416;-85
2022/04/27 13:06:33;;;;;;;3.90;1.47;;;22.90;52.60;;;;;;4993909;28;20420;-85
2022/04/27 13:11:55;;;;;;;1.90;1.20;;;22.90;52.60;;;;;;5010239;28;20410;-85
2022/04/27 13:14:21;;;;;;;1.70;1.53;;;22.90;52.60;;;;;;5008612;28;20404;-84
2022/04/27 13:16:48;;;;;;;1.50;1.40;;;22.90;52.60;;;;;;4975690;28;20423;-84
2022/04/27 13:19:15;;;;;;;1.97;1.33;;;22.90;52.60;;;;;;4992068;28;20427;-84
2022/04/27 13:21:43;;;;;;;1.53;1.30;;;22.90;52.60;;;;;;5009301;28;20443;-84